Time;durP1;ratioP1;P1;durP2;ratioP2;P2;SDS_P1;SDS_P2;PMS_P1;PMS_P2;Temp;Humidity;BMP_temperature;BMP_pressure;BME280_temperature;BME280_humidity;BME280_pressure;Samples;Min_cycle;Max_cycle;Signal;HPM_P1;HPM_P2
2023/06/26 00:00:13;;;;;;;3.83;2.60;;;;;;;24.75;76.67;100709.34;5031543;28;20048;-66
2023/06/26 00:02:39;;;;;;;4.03;2.58;;;;;;;24.75;76.58;100708.59;5032435;28;20033;-67
2023/06/26 00:05:06;;;;;;;4.25;2.63;;;;;;;24.77;76.15;100706.91;5027781;28;20083;-66
2023/06/26 00:07:34;;;;;;;5.50;2.80;;;;;;;24.79;75.66;100711.97;5030342;28;20033;-66
2023/06/26 00:10:00;;;;;;;5.03;3.25;;;;;;;24.77;75.78;100706.91;5032525;28;20032;-67
2023/06/26 00:12:26;;;;;;;3.72;2.65;;;;;;;24.76;76.01;100696.31;5011816;28;20069;-67
2023/06/26 00:14:51;;;;;;;2.88;2.30;;;;;;;24.78;75.46;100694.66;5032162;28;20061;-67
2023/06/26 00:17:17;;;;;;;5.78;3.10;;;;;;;24.77;75.08;100689.59;5031233;28;20033;-67
2023/06/26 00:19:43;;;;;;;5.93;2.72;;;;;;;24.85;75.25;100699.91;5023990;28;20087;-66
2023/06/26 00:22:11;;;;;;;5.07;2.80;;;;;;;24.92;73.79;100699.66;5031284;28;20034;-67
2023/06/26 00:24:36;;;;;;;3.70;2.40;;;;;;;24.70;73.58;100695.38;5029404;28;20030;-67
2023/06/26 00:27:02;;;;;;;4.30;2.75;;;;;;;24.78;74.18;100696.66;5028155;28;20044;-67
2023/06/26 00:29:27;;;;;;;3.20;2.20;;;;;;;24.87;73.81;100694.72;5030470;28;20109;-67
2023/06/26 00:31:53;;;;;;;3.47;2.40;;;;;;;24.93;73.71;100689.41;5031884;28;20033;-67
2023/06/26 00:34:19;;;;;;;2.85;2.03;;;;;;;24.89;73.42;100692.28;5012168;28;20038;-65
2023/06/26 00:36:45;;;;;;;4.75;3.20;;;;;;;24.94;73.19;100691.69;5011739;28;20405;-67
2023/06/26 00:39:11;;;;;;;3.47;2.10;;;;;;;24.94;73.57;100688.94;5030505;28;20030;-67
2023/06/26 00:41:37;;;;;;;4.68;2.70;;;;;;;24.89;73.46;100692.28;5013570;28;20509;-66
2023/06/26 00:44:04;;;;;;;4.25;2.33;;;;;;;24.89;73.29;100684.00;4997043;28;20025;-65
2023/06/26 00:46:30;;;;;;;3.83;2.72;;;;;;;24.75;73.20;100687.31;5018814;28;20037;-62
2023/06/26 00:48:58;;;;;;;3.05;2.30;;;;;;;24.75;73.66;100686.53;5027335;28;20383;-67
2023/06/26 00:51:24;;;;;;;3.10;2.45;;;;;;;24.80;73.39;100686.72;5013312;28;20042;-66
2023/06/26 00:53:50;;;;;;;2.83;2.33;;;;;;;24.72;73.89;100676.41;5012115;28;20045;-67
2023/06/26 00:56:19;;;;;;;3.28;2.33;;;;;;;24.69;74.14;100678.06;5029317;28;20031;-66
2023/06/26 00:58:45;;;;;;;3.58;2.60;;;;;;;24.66;74.75;100669.94;5029176;28;20038;-68
2023/06/26 01:01:15;;;;;;;4.30;2.80;;;;;;;24.59;74.52;100665.44;5031027;28;20489;-68
2023/06/26 01:03:42;;;;;;;2.92;2.17;;;;;;;24.56;74.54;100666.34;5026985;28;20042;-67
2023/06/26 01:06:11;;;;;;;3.17;2.30;;;;;;;24.60;74.91;100661.44;5024503;28;20482;-67
2023/06/26 01:08:38;;;;;;;4.28;2.60;;;;;;;24.64;74.60;100664.09;5030084;28;20025;-68
2023/06/26 01:11:04;;;;;;;3.60;2.63;;;;;;;24.62;74.69;100672.06;5029616;28;20037;-66
2023/06/26 01:13:30;;;;;;;3.67;2.20;;;;;;;24.57;74.00;100669.84;5010194;28;20102;-64
2023/06/26 01:15:58;;;;;;;4.13;2.50;;;;;;;24.61;74.60;100660.25;5028767;28;20036;-67
2023/06/26 01:18:25;;;;;;;9.35;4.55;;;;;;;24.47;74.37;100658.00;5028911;28;20029;-67
2023/06/26 01:20:52;;;;;;;5.40;2.83;;;;;;;24.37;74.85;100659.16;5030461;28;20033;-67
2023/06/26 01:23:23;;;;;;;2.58;1.70;;;;;;;24.36;75.35;100654.13;5027695;28;20029;-67
2023/06/26 01:26:07;;;;;;;3.47;2.40;;;;;;;24.25;75.52;100645.47;5012994;28;20033;-67
2023/06/26 01:28:36;;;;;;;3.45;2.22;;;;;;;24.36;75.64;100649.38;5022343;28;20547;-62
2023/06/26 01:31:05;;;;;;;3.75;2.25;;;;;;;24.33;75.14;100644.00;5028744;28;20037;-67
2023/06/26 01:33:31;;;;;;;3.58;2.38;;;;;;;24.33;75.53;100655.03;5027635;28;20029;-66
2023/06/26 01:35:57;;;;;;;2.72;2.25;;;;;;;24.31;75.76;100643.69;5026472;28;20041;-67
2023/06/26 01:38:28;;;;;;;4.07;2.47;;;;;;;24.22;75.94;100649.88;5029347;28;20030;-67
2023/06/26 01:40:56;;;;;;;5.15;2.13;;;;;;;24.24;75.93;100643.94;5012651;28;20139;-68
2023/06/26 01:43:45;;;;;;;3.85;2.33;;;;;;;24.09;76.65;100641.69;5008002;28;20041;-68
2023/06/26 01:46:23;;;;;;;4.45;2.42;;;;;;;24.08;76.46;100640.16;4991340;28;20413;-67
2023/06/26 01:49:04;;;;;;;3.75;2.13;;;;;;;24.09;76.54;100635.41;5006794;28;20022;-65
2023/06/26 01:51:31;;;;;;;;;;;;;;;23.98;76.32;100637.75;5027752;28;20160;-67
2023/06/26 01:53:58;;;;;;;3.33;2.20;;;;;;;24.03;76.12;100634.44;5012996;28;19917;-68
2023/06/26 01:56:25;;;;;;;4.15;2.25;;;;;;;24.14;75.58;100626.56;5029102;28;20449;-67
2023/06/26 01:58:55;;;;;;;4.00;1.90;;;;;;;24.08;76.02;100620.09;4995490;28;20048;-67
2023/06/26 02:01:21;;;;;;;2.40;2.10;;;;;;;24.06;75.94;100615.06;5012171;28;20029;-67
2023/06/26 02:04:07;;;;;;;4.22;2.20;;;;;;;24.08;76.19;100609.09;5009673;28;20032;-65
2023/06/26 02:06:33;;;;;;;2.63;2.00;;;;;;;24.01;76.24;100607.34;4968092;28;20065;-67
2023/06/26 02:08:58;;;;;;;4.78;2.53;;;;;;;23.96;76.89;100598.91;4970725;28;20038;-66
2023/06/26 02:11:24;;;;;;;5.25;2.50;;;;;;;23.92;76.93;100606.50;4988673;28;20037;-67
2023/06/26 02:13:49;;;;;;;2.72;1.88;;;;;;;23.95;76.76;100595.38;4967883;28;20503;-68
2023/06/26 02:16:15;;;;;;;2.35;1.95;;;;;;;23.86;77.15;100591.78;4991207;28;20065;-67
2023/06/26 02:18:41;;;;;;;3.33;2.20;;;;;;;23.81;77.08;100597.88;4985933;28;20775;-67
2023/06/26 02:21:07;;;;;;;3.53;2.42;;;;;;;23.79;77.38;100601.03;4988854;28;20038;-68
2023/06/26 02:23:32;;;;;;;3.08;2.22;;;;;;;23.79;77.10;100597.53;4987841;28;20145;-67
2023/06/26 02:25:58;;;;;;;4.55;2.45;;;;;;;23.86;76.55;100600.03;4972017;28;20098;-68
2023/06/26 02:28:23;;;;;;;2.90;2.20;;;;;;;23.90;76.84;100600.69;4969364;28;20034;-67
2023/06/26 02:30:49;;;;;;;3.50;2.50;;;;;;;23.82;75.56;100596.66;4986563;28;20434;-68
2023/06/26 02:33:14;;;;;;;3.60;2.33;;;;;;;23.89;75.53;100605.41;4988183;28;20045;-67
2023/06/26 02:35:40;;;;;;;2.15;1.90;;;;;;;24.02;75.17;100591.63;4965815;28;20082;-68
2023/06/26 02:38:06;;;;;;;4.13;2.20;;;;;;;23.93;74.82;100591.53;4987103;28;20553;-67
2023/06/26 02:40:32;;;;;;;3.58;2.45;;;;;;;23.97;74.39;100586.66;4971522;28;20058;-67
2023/06/26 02:42:58;;;;;;;4.97;2.38;;;;;;;23.94;75.15;100584.81;4978290;28;20044;-68
2023/06/26 02:45:23;;;;;;;3.50;2.10;;;;;;;23.87;75.70;100580.31;5023028;28;20040;-65
2023/06/26 02:47:49;;;;;;;2.88;2.28;;;;;;;23.99;75.28;100587.00;5009756;28;20070;-68
2023/06/26 02:50:15;;;;;;;4.93;2.30;;;;;;;24.05;74.96;100571.47;5011600;28;20462;-66
2023/06/26 02:52:59;;;;;;;4.28;2.50;;;;;;;23.96;74.47;100566.63;5003195;28;20037;-67
2023/06/26 02:55:25;;;;;;;4.00;2.70;;;;;;;23.93;74.76;100578.53;5031140;28;20458;-68
2023/06/26 02:57:52;;;;;;;3.25;2.15;;;;;;;24.07;73.72;100574.53;5010981;28;20029;-68
2023/06/26 03:00:17;;;;;;;2.80;1.83;;;;;;;23.80;74.60;100566.84;5027984;28;20036;-67
2023/06/26 03:02:47;;;;;;;3.92;2.20;;;;;;;23.87;74.95;100574.03;5011660;28;20028;-68
2023/06/26 03:05:17;;;;;;;2.58;1.85;;;;;;;23.89;75.38;100575.16;5009382;28;20025;-67
2023/06/26 03:07:43;;;;;;;2.42;1.70;;;;;;;23.95;75.20;100572.59;5017844;28;20042;-68
2023/06/26 03:10:09;;;;;;;3.45;2.30;;;;;;;23.83;74.53;100576.16;5028049;28;20037;-67
2023/06/26 03:12:35;;;;;;;2.92;2.05;;;;;;;23.85;74.66;100573.72;5011688;28;20025;-68
2023/06/26 03:15:00;;;;;;;3.67;2.05;;;;;;;23.71;75.20;100563.25;5005665;28;20022;-68
2023/06/26 03:17:26;;;;;;;3.17;2.20;;;;;;;23.77;75.25;100564.97;5011255;28;20494;-64
2023/06/26 03:19:54;;;;;;;2.78;1.92;;;;;;;23.82;75.21;100560.88;5027605;28;20028;-68
2023/06/26 03:22:29;;;;;;;2.95;1.98;;;;;;;23.62;75.28;100563.16;5014466;28;20033;-66
2023/06/26 03:24:55;;;;;;;3.67;2.05;;;;;;;23.64;75.13;100561.50;5011667;28;20041;-66
2023/06/26 03:27:21;;;;;;;3.05;1.83;;;;;;;23.70;75.93;100550.69;5016106;28;20038;-67
2023/06/26 03:29:47;;;;;;;3.58;2.28;;;;;;;23.72;75.26;100553.75;5014493;28;20058;-67
2023/06/26 03:32:13;;;;;;;4.25;1.73;;;;;;;23.79;75.40;100550.78;5034170;28;20033;-68
2023/06/26 03:34:39;;;;;;;4.15;2.40;;;;;;;23.82;75.37;100547.91;5002509;28;20035;-67
2023/06/26 03:37:05;;;;;;;4.38;2.05;;;;;;;23.86;75.47;100553.25;5038316;28;20474;-66
2023/06/26 03:39:31;;;;;;;3.83;2.25;;;;;;;23.82;74.84;100550.66;5014828;28;20087;-67
2023/06/26 03:42:00;;;;;;;3.13;1.88;;;;;;;23.81;75.24;100549.09;5012113;28;20052;-67
2023/06/26 03:44:26;;;;;;;3.13;2.00;;;;;;;23.83;75.45;100551.38;5027970;28;20024;-67
2023/06/26 03:46:51;;;;;;;3.90;2.22;;;;;;;23.89;75.08;100555.88;5011252;28;20128;-67
2023/06/26 03:49:17;;;;;;;3.03;2.22;;;;;;;23.79;74.97;100553.53;5010373;28;20029;-67
2023/06/26 03:51:43;;;;;;;2.92;2.05;;;;;;;23.88;75.54;100559.09;5012667;28;20048;-67
2023/06/26 03:54:09;;;;;;;3.35;2.13;;;;;;;23.86;74.94;100553.25;5032211;28;20029;-67
2023/06/26 03:56:34;;;;;;;3.55;2.30;;;;;;;23.70;75.57;100542.44;5014754;28;20182;-68
2023/06/26 03:59:00;;;;;;;2.78;2.00;;;;;;;23.88;75.27;100546.09;5013624;28;20065;-67
2023/06/26 04:01:26;;;;;;;6.25;2.20;;;;;;;23.95;75.21;100532.06;5011996;28;20029;-66
2023/06/26 04:03:51;;;;;;;2.92;1.90;;;;;;;23.94;76.02;100529.78;5013320;28;20032;-68
2023/06/26 04:06:17;;;;;;;3.15;1.83;;;;;;;23.91;75.98;100530.66;5021076;28;20470;-67
2023/06/26 04:09:03;;;;;;;3.03;2.10;;;;;;;23.89;75.58;100525.63;5018076;28;20057;-67
2023/06/26 04:11:29;;;;;;;3.90;2.17;;;;;;;24.02;76.05;100525.59;4951610;28;20533;-68
2023/06/26 04:13:54;;;;;;;2.72;1.98;;;;;;;24.05;75.98;100514.44;4954124;28;20046;-68
2023/06/26 04:16:21;;;;;;;2.78;1.95;;;;;;;24.09;75.64;100517.84;4971271;28;20117;-67
2023/06/26 04:18:46;;;;;;;3.65;2.22;;;;;;;24.11;75.81;100514.63;4970023;28;20071;-67
2023/06/26 04:21:12;;;;;;;3.40;2.45;;;;;;;24.10;75.29;100521.34;4949872;28;20098;-65
2023/06/26 04:23:40;;;;;;;4.25;2.35;;;;;;;24.16;74.95;100522.28;4970797;28;20178;-67
2023/06/26 04:26:06;;;;;;;3.58;1.92;;;;;;;24.13;75.24;100518.47;4962613;28;20088;-67
2023/06/26 04:28:35;;;;;;;3.08;1.90;;;;;;;24.17;75.40;100508.09;4966256;28;20126;-67
2023/06/26 04:31:03;;;;;;;2.50;1.83;;;;;;;23.83;75.40;100510.13;4964101;28;20159;-67
2023/06/26 04:33:29;;;;;;;2.20;1.83;;;;;;;23.83;76.33;100505.41;4953732;28;20043;-67
2023/06/26 04:35:54;;;;;;;4.10;2.50;;;;;;;23.99;75.93;100498.91;4954725;28;20043;-66
2023/06/26 04:38:21;;;;;;;3.05;2.00;;;;;;;23.89;75.52;100503.59;4968408;28;20035;-67
2023/06/26 04:40:47;;;;;;;3.35;1.95;;;;;;;23.92;77.43;100499.19;4971061;28;20039;-67
2023/06/26 04:43:13;;;;;;;3.85;2.35;;;;;;;24.08;76.91;100496.25;4970509;28;20388;-67
2023/06/26 04:45:38;;;;;;;3.25;1.98;;;;;;;24.12;75.65;100499.63;4965941;28;20053;-66
2023/06/26 04:48:05;;;;;;;3.40;2.42;;;;;;;24.17;75.70;100502.59;4986075;28;20076;-68
2023/06/26 04:50:31;;;;;;;3.13;1.98;;;;;;;24.42;74.96;100509.88;5027211;28;20104;-63
2023/06/26 04:52:56;;;;;;;3.28;1.92;;;;;;;24.37;73.86;100495.94;5029832;28;20461;-67
2023/06/26 04:55:24;;;;;;;3.20;2.22;;;;;;;24.27;74.07;100491.59;5031272;28;20033;-67
2023/06/26 04:57:50;;;;;;;4.88;2.08;;;;;;;24.46;73.29;100491.25;5017273;28;20096;-67
2023/06/26 05:00:15;;;;;;;2.80;1.95;;;;;;;24.42;73.45;100487.84;5029292;28;20045;-66
2023/06/26 05:02:41;;;;;;;2.78;1.83;;;;;;;24.34;74.34;100477.56;5026454;28;20037;-66
2023/06/26 05:05:07;;;;;;;2.95;1.77;;;;;;;24.54;73.70;100477.94;5020462;28;20031;-68
2023/06/26 05:07:32;;;;;;;3.47;2.17;;;;;;;24.60;72.95;100482.38;5012634;28;20160;-65
2023/06/26 05:09:58;;;;;;;4.57;2.40;;;;;;;24.53;72.66;100479.94;5031207;28;20464;-64
2023/06/26 05:12:23;;;;;;;5.20;2.58;;;;;;;24.68;72.42;100475.38;5028299;28;20120;-68
2023/06/26 05:14:48;;;;;;;3.17;2.05;;;;;;;24.71;73.40;100473.72;5023425;28;20041;-67
2023/06/26 05:17:14;;;;;;;3.20;1.90;;;;;;;25.25;71.88;100476.56;5030758;28;20069;-67
2023/06/26 05:19:39;;;;;;;3.00;2.05;;;;;;;25.74;67.46;100468.91;5031404;28;20045;-65
2023/06/26 05:22:07;;;;;;;3.78;2.40;;;;;;;26.14;66.40;100468.66;5025431;28;20045;-67
2023/06/26 05:24:35;;;;;;;2.90;1.75;;;;;;;26.46;64.75;100467.16;5031715;28;20080;-68
2023/06/26 05:27:04;;;;;;;3.63;2.13;;;;;;;26.93;63.87;100474.72;5030366;28;20509;-68
2023/06/26 05:29:33;;;;;;;3.83;2.42;;;;;;;26.97;61.77;100467.78;5027429;28;20037;-68
2023/06/26 05:32:00;;;;;;;2.88;2.00;;;;;;;26.89;61.32;100461.09;5028009;28;20037;-66
2023/06/26 05:34:31;;;;;;;3.25;2.05;;;;;;;27.35;60.78;100459.53;5006096;28;20493;-68
2023/06/26 05:37:01;;;;;;;3.38;2.10;;;;;;;27.53;59.90;100461.38;5029542;28;20041;-67
2023/06/26 05:39:27;;;;;;;3.45;2.22;;;;;;;27.60;58.18;100458.25;5029615;28;20033;-67
2023/06/26 05:41:53;;;;;;;2.22;1.70;;;;;;;27.81;58.41;100456.34;5028153;28;20025;-66
2023/06/26 05:44:18;;;;;;;2.88;1.80;;;;;;;27.89;58.95;100455.47;5037455;22;20468;-68
2023/06/26 05:46:46;;;;;;;3.10;1.92;;;;;;;28.09;56.97;100449.25;5042414;28;20117;-68
2023/06/26 05:49:11;;;;;;;2.85;2.03;;;;;;;28.16;56.87;100446.13;5016112;28;20025;-68
2023/06/26 05:51:37;;;;;;;2.20;1.70;;;;;;;28.36;57.05;100446.91;5026611;28;20040;-65
2023/06/26 05:54:03;;;;;;;2.22;1.70;;;;;;;28.26;56.59;100447.53;5035533;28;20028;-68
2023/06/26 05:56:29;;;;;;;2.92;1.83;;;;;;;28.34;55.69;100437.53;5032308;28;20104;-68
2023/06/26 05:58:56;;;;;;;2.15;1.92;;;;;;;28.70;55.09;100436.31;5049760;28;20033;-68
2023/06/26 06:01:21;;;;;;;2.63;1.77;;;;;;;28.92;54.77;100445.69;5031644;28;20045;-67
2023/06/26 06:03:47;;;;;;;3.38;2.00;;;;;;;28.71;54.00;100435.84;5027162;28;20171;-67
2023/06/26 06:06:12;;;;;;;5.35;1.90;;;;;;;28.85;54.78;100437.78;5045766;28;20674;-67
2023/06/26 06:08:38;;;;;;;3.25;2.03;;;;;;;29.08;53.86;100436.03;5049380;28;20604;-67
2023/06/26 06:11:03;;;;;;;2.10;1.65;;;;;;;29.02;54.17;100435.97;5050707;28;20539;-67
2023/06/26 06:13:29;;;;;;;3.33;2.00;;;;;;;28.87;54.98;100434.53;5050509;28;20037;-68
2023/06/26 06:15:55;;;;;;;1.92;1.70;;;;;;;28.49;55.01;100429.97;5042415;28;20063;-67
2023/06/26 06:18:20;;;;;;;2.90;2.00;;;;;;;28.76;54.52;100429.63;5049270;28;20021;-68
2023/06/26 06:20:46;;;;;;;3.60;2.08;;;;;;;28.72;55.10;100440.16;5032957;28;20036;-68
2023/06/26 06:23:12;;;;;;;3.05;2.08;;;;;;;28.69;56.05;100426.50;5030133;28;20043;-67
2023/06/26 06:25:37;;;;;;;3.83;2.10;;;;;;;28.52;54.65;100431.78;5044364;28;20029;-68
2023/06/26 06:28:04;;;;;;;2.42;1.75;;;;;;;28.56;55.77;100424.03;5048704;28;20108;-67
2023/06/26 06:30:30;;;;;;;2.88;1.98;;;;;;;28.48;56.20;100420.13;5050303;28;20033;-69
2023/06/26 06:32:55;;;;;;;7.88;1.85;;;;;;;28.64;55.95;100422.38;5032452;28;20108;-67
2023/06/26 06:35:21;;;;;;;2.88;1.80;;;;;;;28.91;55.49;100413.66;5023047;28;20064;-68
2023/06/26 06:37:46;;;;;;;2.47;1.60;;;;;;;29.15;55.69;100416.22;5044133;28;20032;-66
2023/06/26 06:40:13;;;;;;;2.90;2.00;;;;;;;29.15;55.05;100414.19;5032105;28;20474;-68
2023/06/26 06:42:38;;;;;;;2.97;1.77;;;;;;;29.41;54.46;100414.22;5026012;28;20052;-67
2023/06/26 06:45:05;;;;;;;2.92;2.08;;;;;;;29.48;54.49;100411.00;5029058;28;20107;-67
2023/06/26 06:47:34;;;;;;;3.15;1.80;;;;;;;29.46;54.79;100412.75;5044465;28;20564;-67
2023/06/26 06:50:07;;;;;;;3.05;1.88;;;;;;;29.07;54.76;100404.00;5030395;28;20083;-65
2023/06/26 06:52:35;;;;;;;2.13;1.58;;;;;;;29.21;54.52;100417.78;5034090;28;20241;-68
2023/06/26 06:55:05;;;;;;;3.17;1.77;;;;;;;29.13;54.91;100397.28;5021024;28;20900;-66
2023/06/26 06:57:31;;;;;;;2.13;1.70;;;;;;;29.40;54.77;100393.28;5037553;28;20021;-65
2023/06/26 06:59:56;;;;;;;2.67;1.67;;;;;;;28.89;54.93;100393.19;5031113;28;20052;-65
2023/06/26 07:02:21;;;;;;;2.75;1.60;;;;;;;28.42;57.65;100381.25;5045361;28;20081;-66
2023/06/26 07:04:47;;;;;;;3.50;1.67;;;;;;;28.92;57.47;100381.88;5035308;28;20378;-64
2023/06/26 07:07:13;;;;;;;3.58;2.17;;;;;;;29.39;56.15;100375.84;5052107;28;20048;-66
2023/06/26 07:09:39;;;;;;;2.13;1.70;;;;;;;29.82;56.31;100376.75;5051144;28;20545;-64
2023/06/26 07:12:05;;;;;;;2.92;1.75;;;;;;;30.03;55.40;100374.59;5050971;28;20124;-66
2023/06/26 07:14:31;;;;;;;2.30;1.55;;;;;;;30.25;53.86;100371.97;5046956;28;20116;-74
2023/06/26 07:16:56;;;;;;;6.47;1.75;;;;;;;30.43;51.95;100377.13;5025719;28;20124;-66
2023/06/26 07:19:21;;;;;;;2.67;1.50;;;;;;;30.08;52.41;100365.56;5028682;28;20020;-65
2023/06/26 07:21:47;;;;;;;3.03;1.85;;;;;;;29.95;52.32;100365.97;5048921;28;20658;-64
2023/06/26 07:24:15;;;;;;;2.92;1.50;;;;;;;30.16;53.37;100364.56;5049402;28;20446;-67
2023/06/26 07:26:41;;;;;;;3.70;1.88;;;;;;;29.83;53.23;100367.13;5029533;28;20112;-65
2023/06/26 07:29:06;;;;;;;2.42;1.80;;;;;;;30.22;52.23;100379.28;5027823;28;20579;-68
2023/06/26 07:31:32;;;;;;;1.70;1.52;;;;;;;30.07;52.43;100373.13;5025421;28;20045;-67
2023/06/26 07:33:57;;;;;;;2.08;1.70;;;;;;;30.45;53.08;100368.31;5043998;28;20028;-65
2023/06/26 07:36:23;;;;;;;3.00;1.55;;;;;;;30.22;50.58;100373.72;5027633;28;20037;-70
2023/06/26 07:38:48;;;;;;;3.20;1.75;;;;;;;30.05;52.33;100364.53;5050193;28;20121;-68
2023/06/26 07:41:14;;;;;;;3.30;1.85;;;;;;;29.89;52.50;100361.63;5044847;28;20033;-66
2023/06/26 07:43:39;;;;;;;1.60;1.40;;;;;;;30.15;52.53;100360.28;5044538;28;20096;-67
2023/06/26 07:46:05;;;;;;;2.53;1.58;;;;;;;30.40;52.97;100358.69;5042127;28;20044;-72
2023/06/26 07:48:30;;;;;;;2.53;1.80;;;;;;;30.54;50.91;100354.94;5044835;28;20021;-65
2023/06/26 07:50:55;;;;;;;2.65;1.88;;;;;;;30.44;50.74;100359.19;5034522;28;20735;-65
2023/06/26 07:53:21;;;;;;;2.35;1.52;;;;;;;30.82;50.73;100380.06;5037756;28;20063;-67
2023/06/26 07:55:46;;;;;;;2.95;1.73;;;;;;;31.18;50.96;100367.28;5016909;28;20037;-67
2023/06/26 07:58:12;;;;;;;3.22;1.98;;;;;;;31.40;50.80;100368.09;5028578;28;20018;-67
2023/06/26 08:00:38;;;;;;;2.03;1.80;;;;;;;31.79;50.28;100366.09;5041526;28;20037;-67
2023/06/26 08:03:03;;;;;;;2.60;1.63;;;;;;;31.78;50.30;100370.16;5033345;28;20047;-68
2023/06/26 08:05:29;;;;;;;3.10;1.80;;;;;;;31.89;49.17;100366.56;5033124;28;20071;-67
2023/06/26 08:07:55;;;;;;;4.07;2.15;;;;;;;32.20;49.55;100363.50;5042055;28;20556;-67
2023/06/26 08:10:20;;;;;;;2.95;1.75;;;;;;;32.27;50.18;100368.53;5031527;28;20037;-67
2023/06/26 08:12:46;;;;;;;3.22;1.52;;;;;;;31.25;49.28;100369.56;5014411;28;20029;-66
2023/06/26 08:15:12;;;;;;;2.50;1.70;;;;;;;31.51;50.33;100367.38;5030138;28;20132;-67
2023/06/26 08:17:38;;;;;;;2.83;1.88;;;;;;;32.04;50.11;100355.19;5045908;28;20116;-67
2023/06/26 08:20:05;;;;;;;2.50;1.85;;;;;;;32.47;48.18;100345.94;5049176;28;20043;-67
2023/06/26 08:22:30;;;;;;;2.95;1.75;;;;;;;32.34;48.37;100353.31;5020109;28;20033;-67
2023/06/26 08:24:56;;;;;;;3.35;1.75;;;;;;;32.15;48.30;100344.78;5024990;28;20032;-67
2023/06/26 08:27:22;;;;;;;3.30;1.88;;;;;;;32.18;48.20;100337.38;5049044;28;20415;-67
2023/06/26 08:29:48;;;;;;;3.72;2.17;;;;;;;32.13;47.27;100336.16;5046951;28;20440;-68
2023/06/26 08:32:14;;;;;;;2.15;1.95;;;;;;;32.07;48.75;100329.06;5046356;28;20409;-67
2023/06/26 08:34:39;;;;;;;2.42;1.50;;;;;;;31.93;47.61;100328.84;5051655;28;20025;-67
2023/06/26 08:37:05;;;;;;;3.42;2.22;;;;;;;31.74;47.19;100332.66;5040848;28;20036;-67
2023/06/26 08:39:30;;;;;;;3.67;1.90;;;;;;;31.86;49.16;100325.81;5050661;28;20056;-67
2023/06/26 08:41:56;;;;;;;2.55;1.73;;;;;;;31.79;47.77;100326.31;5032740;28;20065;-67
2023/06/26 08:44:24;;;;;;;3.63;2.00;;;;;;;31.65;48.53;100322.50;5038840;28;20542;-67
2023/06/26 08:47:13;;;;;;;2.10;1.50;;;;;;;32.20;47.67;100302.16;5032098;28;20036;-67
2023/06/26 08:49:46;;;;;;;2.63;1.77;;;;;;;32.30;47.55;100308.19;4965448;28;20090;-67
2023/06/26 08:52:23;;;;;;;3.25;1.83;;;;;;;32.54;46.82;100306.34;4972605;28;20069;-67
2023/06/26 08:54:56;;;;;;;4.13;1.80;;;;;;;32.20;46.32;100323.69;4950194;28;20063;-67
2023/06/26 08:57:23;;;;;;;2.85;1.60;;;;;;;32.38;46.80;100331.50;4970277;28;20039;-67
2023/06/26 08:59:48;;;;;;;2.65;1.70;;;;;;;32.20;47.44;100327.25;4970545;28;20510;-67
2023/06/26 09:02:14;;;;;;;4.57;1.80;;;;;;;32.53;47.42;100331.97;4971074;28;20038;-67
2023/06/26 09:04:41;;;;;;;2.88;1.50;;;;;;;32.70;46.40;100341.00;4980816;28;20249;-67
2023/06/26 09:07:08;;;;;;;3.38;1.90;;;;;;;32.44;45.40;100335.06;4986418;28;20082;-67
2023/06/26 09:09:34;;;;;;;2.78;1.67;;;;;;;32.56;45.54;100339.31;4981866;28;20045;-68
2023/06/26 09:12:02;;;;;;;3.63;1.55;;;;;;;32.69;45.55;100339.50;4973422;28;20042;-67
2023/06/26 09:14:29;;;;;;;2.35;1.67;;;;;;;32.77;45.66;100334.91;4976301;28;20043;-68
2023/06/26 09:16:55;;;;;;;5.45;1.88;;;;;;;33.05;45.66;100346.69;4984053;28;20038;-68
2023/06/26 09:19:20;;;;;;;2.42;1.80;;;;;;;33.28;46.20;100338.88;4971471;28;20089;-67
2023/06/26 09:21:50;;;;;;;2.30;1.73;;;;;;;33.37;46.61;100355.34;4979416;28;20073;-67
2023/06/26 09:24:19;;;;;;;3.70;1.98;;;;;;;33.52;46.86;100361.34;4969462;28;20053;-67
2023/06/26 09:26:44;;;;;;;3.28;1.83;;;;;;;33.92;46.06;100368.09;5006334;28;20045;-68
2023/06/26 09:29:10;;;;;;;2.30;1.40;;;;;;;34.07;46.58;100363.63;5028852;28;20037;-67
2023/06/26 09:31:41;;;;;;;4.03;1.98;;;;;;;34.13;45.51;100375.53;5035959;28;20040;-67
2023/06/26 09:34:06;;;;;;;3.05;1.80;;;;;;;34.11;44.89;100374.56;5041069;28;20465;-67
2023/06/26 09:36:33;;;;;;;3.03;2.03;;;;;;;34.01;44.61;100381.78;5016255;28;20065;-68
2023/06/26 09:39:00;;;;;;;2.97;2.00;;;;;;;34.20;44.44;100388.19;5031674;28;20112;-67
2023/06/26 09:41:26;;;;;;;3.90;2.05;;;;;;;34.19;45.04;100386.66;5050750;28;20048;-67
2023/06/26 09:43:51;;;;;;;4.85;1.88;;;;;;;34.35;45.36;100391.31;5050616;28;20443;-68
2023/06/26 09:46:27;;;;;;;3.33;2.15;;;;;;;34.50;45.75;100388.88;5050193;28;20041;-68
2023/06/26 09:49:11;;;;;;;3.55;2.40;;;;;;;34.76;45.16;100405.88;5037676;28;20402;-68
2023/06/26 09:51:38;;;;;;;2.75;1.98;;;;;;;34.83;44.52;100399.66;5039179;28;20040;-67
2023/06/26 09:54:05;;;;;;;2.75;1.90;;;;;;;34.71;44.79;100401.09;5031844;28;20033;-67
2023/06/26 09:56:32;;;;;;;4.40;2.55;;;;;;;34.73;45.10;100400.56;5030594;28;20041;-67
2023/06/26 09:59:03;;;;;;;3.33;2.17;;;;;;;34.45;45.12;100404.44;5024559;28;20021;-67
2023/06/26 10:01:32;;;;;;;3.63;2.00;;;;;;;34.12;45.66;100393.59;5030531;28;20068;-66
2023/06/26 10:03:58;;;;;;;3.53;2.38;;;;;;;33.87;46.30;100406.03;5042172;28;20033;-66
2023/06/26 10:06:32;;;;;;;5.00;2.40;;;;;;;33.54;47.09;100417.47;5046241;28;20036;-66
2023/06/26 10:09:00;;;;;;;3.42;2.47;;;;;;;33.47;46.70;100420.84;5042385;28;20052;-66
2023/06/26 10:11:55;;;;;;;3.40;2.17;;;;;;;33.11;47.82;100417.22;5025342;28;20033;-66
2023/06/26 10:14:24;;;;;;;5.30;2.28;;;;;;;33.09;47.60;100422.56;5022225;28;20051;-66
2023/06/26 10:16:50;;;;;;;3.97;2.63;;;;;;;32.68;48.19;100424.50;5030933;28;20025;-66
2023/06/26 10:19:23;;;;;;;3.20;1.90;;;;;;;32.37;47.83;100420.00;5049298;28;20497;-66
2023/06/26 10:21:52;;;;;;;4.95;3.03;;;;;;;32.09;48.58;100432.47;5050207;28;20045;-66
2023/06/26 10:24:19;;;;;;;4.25;2.30;;;;;;;31.94;48.77;100439.06;5049754;28;20040;-66
2023/06/26 10:26:46;;;;;;;3.05;2.15;;;;;;;31.82;48.99;100451.44;5029446;28;20057;-66
2023/06/26 10:29:15;;;;;;;3.42;2.20;;;;;;;31.66;49.57;100455.00;5027960;28;20082;-66
2023/06/26 10:31:45;;;;;;;3.47;2.53;;;;;;;31.46;50.73;100463.56;5045544;28;20021;-65
2023/06/26 10:34:11;;;;;;;3.88;2.38;;;;;;;31.33;50.91;100473.63;5045710;28;20116;-66
2023/06/26 10:36:37;;;;;;;3.70;2.47;;;;;;;31.17;51.55;100505.72;5045751;28;20037;-65
2023/06/26 10:39:06;;;;;;;3.67;2.65;;;;;;;30.90;58.83;100526.63;5003621;28;20387;-66
2023/06/26 10:41:42;;;;;;;4.40;2.72;;;;;;;30.17;66.29;100543.25;5050689;28;20086;-66
2023/06/26 10:44:17;;;;;;;7.53;3.20;;;;;;;29.50;71.97;100549.34;5045367;28;20044;-67
2023/06/26 10:46:53;;;;;;;4.63;2.47;;;;;;;28.94;74.23;100553.41;5047010;28;20951;-66
2023/06/26 10:49:33;;;;;;;3.47;2.40;;;;;;;28.92;73.70;100559.41;5030273;28;20078;-66
2023/06/26 10:52:01;;;;;;;3.87;2.33;;;;;;;28.43;74.56;100549.09;5035903;28;20043;-66
2023/06/26 10:54:31;;;;;;;3.17;2.00;;;;;;;28.07;75.70;100543.16;5030582;28;20059;-66
2023/06/26 10:56:57;;;;;;;2.20;1.50;;;;;;;28.10;75.50;100545.75;5046178;28;20029;-66
2023/06/26 10:59:26;;;;;;;2.53;1.63;;;;;;;27.90;77.06;100544.84;5042191;28;20037;-66
2023/06/26 11:02:04;;;;;;;2.33;1.85;;;;;;;27.70;77.56;100533.66;5047486;28;20060;-66
2023/06/26 11:04:44;;;;;;;2.47;1.85;;;;;;;27.53;77.81;100534.09;5047054;28;20033;-66
2023/06/26 11:07:24;;;;;;;2.20;1.52;;;;;;;27.64;76.59;100539.09;5050699;28;20029;-66
2023/06/26 11:10:18;;;;;;;3.53;1.33;;;;;;;27.56;77.95;100537.94;5048804;28;20401;-66
2023/06/26 11:12:47;;;;;;;3.25;2.00;;;;;;;27.35;78.76;100523.16;5053590;28;20128;-65
2023/06/26 11:15:18;;;;;;;3.22;1.88;;;;;;;27.24;79.56;100525.69;5057428;28;20070;-66
2023/06/26 11:17:44;;;;;;;3.28;2.03;;;;;;;27.28;79.93;100520.75;5042487;28;20529;-65
2023/06/26 11:20:15;;;;;;;4.25;2.03;;;;;;;27.37;78.94;100545.59;5031091;28;20048;-65
2023/06/26 11:22:42;;;;;;;2.00;1.60;;;;;;;27.28;80.58;100548.41;5048622;28;20068;-66
2023/06/26 11:25:09;;;;;;;3.45;1.85;;;;;;;27.31;81.35;100541.91;5034322;28;20032;-66